Time;durP1;ratioP1;P1;durP2;ratioP2;P2;SDS_P1;SDS_P2;PMS_P1;PMS_P2;Temp;Humidity;BMP_temperature;BMP_pressure;BME280_temperature;BME280_humidity;BME280_pressure;Samples;Min_cycle;Max_cycle;Signal;HPM_P1;HPM_P2
2023/03/05 00:00:09;;;;;;;6.85;1.88;;;;;;;;;;5015182;28;20053;-87
2023/03/05 00:02:36;;;;;;;5.28;2.33;;;;;;;;;;5015470;28;20046;-87
2023/03/05 00:05:03;;;;;;;5.95;2.50;;;;;;;;;;5015525;28;20517;-87
2023/03/05 00:07:31;;;;;;;8.38;2.92;;;;;;;;;;5014956;28;20042;-88
2023/03/05 00:09:59;;;;;;;8.30;2.30;;;;;;;;;;5014866;28;20054;-87
2023/03/05 00:12:27;;;;;;;11.80;2.60;;;;;;;;;;5014973;28;20054;-87
2023/03/05 00:14:54;;;;;;;7.72;3.20;;;;;;;;;;5014961;28;20405;-87
2023/03/05 00:17:21;;;;;;;12.85;5.28;;;;;;;;;;5014822;28;20081;-87
2023/03/05 00:19:48;;;;;;;8.80;2.80;;;;;;;;;;5014885;28;20142;-87
2023/03/05 00:22:16;;;;;;;10.88;3.45;;;;;;;;;;5015160;28;20056;-87
2023/03/05 00:24:43;;;;;;;7.82;2.60;;;;;;;;;;5015896;28;20056;-87
2023/03/05 00:27:10;;;;;;;7.13;2.60;;;;;;;;;;5015644;28;20481;-87
2023/03/05 00:29:38;;;;;;;4.70;2.35;;;;;;;;;;5014664;28;20482;-87
2023/03/05 00:32:05;;;;;;;11.52;2.50;;;;;;;;;;5014327;28;20486;-87
2023/03/05 00:34:32;;;;;;;9.05;2.67;;;;;;;;;;5015611;28;20080;-87
2023/03/05 00:37:00;;;;;;;6.60;3.10;;;;;;;;;;5014546;28;20304;-87
2023/03/05 00:39:27;;;;;;;9.73;3.00;;;;;;;;;;5015389;28;20048;-87
2023/03/05 00:41:55;;;;;;;8.75;2.75;;;;;;;;;;5014425;28;20053;-87
2023/03/05 00:44:22;;;;;;;11.98;3.40;;;;;;;;;;5015397;28;20053;-88
2023/03/05 00:46:50;;;;;;;9.88;3.15;;;;;;;;;;5014410;28;20129;-87
2023/03/05 00:49:17;;;;;;;9.15;3.15;;;;;;;;;;5014345;28;20053;-87
2023/03/05 00:51:44;;;;;;;11.32;3.03;;;;;;;;;;5015146;28;20501;-87
2023/03/05 00:54:12;;;;;;;9.60;2.67;;;;;;;;;;5014159;28;20052;-87
2023/03/05 00:56:39;;;;;;;10.77;2.40;;;;;;;;;;5013920;28;20050;-87
2023/03/05 00:59:06;;;;;;;7.82;2.13;;;;;;;;;;5014075;28;20046;-87
2023/03/05 01:01:33;;;;;;;11.18;2.45;;;;;;;;;;5015156;28;20076;-88
2023/03/05 01:04:00;;;;;;;7.60;3.10;;;;;;;;;;5014071;28;20176;-88
2023/03/05 01:06:28;;;;;;;6.85;2.75;;;;;;;;;;5014982;28;20049;-87
2023/03/05 01:08:55;;;;;;;5.68;1.60;;;;;;;;;;5013918;28;20061;-87
2023/03/05 01:11:23;;;;;;;5.88;1.95;;;;;;;;;;5014629;28;20052;-87
2023/03/05 01:13:50;;;;;;;8.70;1.80;;;;;;;;;;5013970;28;20053;-87
2023/03/05 01:16:17;;;;;;;6.65;1.83;;;;;;;;;;5015146;28;20490;-87
2023/03/05 01:18:44;;;;;;;12.85;2.03;;;;;;;;;;5013785;28;20108;-87
2023/03/05 01:21:11;;;;;;;6.05;1.70;;;;;;;;;;5013588;28;20053;-87
2023/03/05 01:23:39;;;;;;;6.65;1.48;;;;;;;;;;5014764;28;20137;-87
2023/03/05 01:26:07;;;;;;;2.10;1.42;;;;;;;;;;5014878;28;20057;-87
2023/03/05 01:28:34;;;;;;;3.97;1.30;;;;;;;;;;5013853;28;20053;-87
2023/03/05 01:31:02;;;;;;;5.05;1.40;;;;;;;;;;5013755;28;20060;-87
2023/03/05 01:33:29;;;;;;;8.18;2.00;;;;;;;;;;5013831;28;20065;-87
2023/03/05 01:35:56;;;;;;;4.90;1.40;;;;;;;;;;5013549;28;20501;-87
2023/03/05 01:38:24;;;;;;;4.60;1.30;;;;;;;;;;5014537;28;20050;-87
2023/03/05 01:40:51;;;;;;;6.78;1.58;;;;;;;;;;5014477;28;20308;-88
2023/03/05 01:43:23;;;;;;;5.05;1.40;;;;;;;;;;5013502;28;20050;-87
2023/03/05 01:46:09;;;;;;;5.07;1.27;;;;;;;;;;5013415;28;20050;-87
2023/03/05 01:48:36;;;;;;;6.00;1.30;;;;;;;;;;5014230;28;20491;-87
2023/03/05 01:51:03;;;;;;;3.17;1.08;;;;;;;;;;5014123;28;20160;-87
2023/03/05 01:53:31;;;;;;;1.45;1.00;;;;;;;;;;5013240;28;20052;-87
2023/03/05 01:55:58;;;;;;;2.38;1.38;;;;;;;;;;5013470;28;20054;-87
2023/03/05 01:58:25;;;;;;;2.90;1.20;;;;;;;;;;5013206;28;20054;-87
2023/03/05 02:00:53;;;;;;;3.95;1.20;;;;;;;;;;5013401;28;20046;-88
2023/03/05 02:03:22;;;;;;;4.72;1.70;;;;;;;;;;5013431;28;20046;-87
2023/03/05 02:05:49;;;;;;;5.70;1.33;;;;;;;;;;5013529;28;20138;-88
2023/03/05 02:08:19;;;;;;;5.03;1.40;;;;;;;;;;5012984;28;20093;-88
2023/03/05 02:10:48;;;;;;;6.20;1.30;;;;;;;;;;5013305;28;20085;-88
2023/03/05 02:13:21;;;;;;;3.45;1.10;;;;;;;;;;5013326;28;20613;-87
2023/03/05 02:15:48;;;;;;;3.03;1.70;;;;;;;;;;5013174;28;20080;-87
2023/03/05 02:18:17;;;;;;;5.90;1.83;;;;;;;;;;5012982;28;20050;-87
2023/03/05 02:20:44;;;;;;;4.75;1.45;;;;;;;;;;5014193;28;20050;-86
2023/03/05 02:23:11;;;;;;;6.95;1.60;;;;;;;;;;5013918;28;20463;-87
2023/03/05 02:25:38;;;;;;;5.68;1.35;;;;;;;;;;5013003;28;20050;-87
2023/03/05 02:28:09;;;;;;;3.28;1.25;;;;;;;;;;5012927;28;20094;-87
2023/03/05 02:30:37;;;;;;;4.53;1.65;;;;;;;;;;5013257;28;20081;-88
2023/03/05 02:33:05;;;;;;;5.20;1.85;;;;;;;;;;5012379;28;20449;-87
2023/03/05 02:35:32;;;;;;;6.05;1.48;;;;;;;;;;5014139;28;20077;-87
2023/03/05 02:37:59;;;;;;;3.30;1.45;;;;;;;;;;5013875;28;20479;-87
2023/03/05 02:40:27;;;;;;;7.22;1.38;;;;;;;;;;5013650;28;20597;-87
2023/03/05 02:42:54;;;;;;;3.03;1.20;;;;;;;;;;5012826;28;20056;-87
2023/03/05 02:45:21;;;;;;;10.95;1.60;;;;;;;;;;5013882;28;20066;-87
2023/03/05 02:47:49;;;;;;;5.10;1.42;;;;;;;;;;5013015;28;20045;-88
2023/03/05 02:50:16;;;;;;;4.20;1.63;;;;;;;;;;5013614;28;20061;-88
2023/03/05 02:52:43;;;;;;;15.27;1.98;;;;;;;;;;5014638;28;20052;-87
2023/03/05 02:55:11;;;;;;;5.97;1.50;;;;;;;;;;5013921;28;20046;-87
2023/03/05 02:57:38;;;;;;;7.07;1.70;;;;;;;;;;5012558;28;20050;-87
2023/03/05 03:00:05;;;;;;;9.05;1.88;;;;;;;;;;5013481;28;20129;-87
2023/03/05 03:02:33;;;;;;;3.42;1.60;;;;;;;;;;5012809;28;20045;-87
2023/03/05 03:05:00;;;;;;;5.80;1.77;;;;;;;;;;5012494;28;20141;-87
2023/03/05 03:07:27;;;;;;;7.47;1.98;;;;;;;;;;5013022;28;20053;-87
2023/03/05 03:09:54;;;;;;;1.88;1.30;;;;;;;;;;5012423;28;20064;-87
2023/03/05 03:12:22;;;;;;;5.65;1.75;;;;;;;;;;5013385;28;20052;-88
2023/03/05 03:14:49;;;;;;;4.22;1.20;;;;;;;;;;5012624;28;20092;-88
2023/03/05 03:17:17;;;;;;;7.28;2.05;;;;;;;;;;5013497;28;20420;-87
2023/03/05 03:19:44;;;;;;;3.58;1.20;;;;;;;;;;5013383;28;20046;-87
2023/03/05 03:22:13;;;;;;;3.63;1.50;;;;;;;;;;5016277;28;20140;-87
2023/03/05 03:24:41;;;;;;;6.07;1.65;;;;;;;;;;5016095;28;20045;-87
2023/03/05 03:27:08;;;;;;;5.70;1.33;;;;;;;;;;5015754;28;20054;-87
2023/03/05 03:29:36;;;;;;;8.73;1.65;;;;;;;;;;5016802;28;20485;-87
2023/03/05 03:32:03;;;;;;;5.10;1.95;;;;;;;;;;5016933;28;20060;-87
2023/03/05 03:34:30;;;;;;;4.00;1.33;;;;;;;;;;5016274;28;20045;-87
2023/03/05 03:36:58;;;;;;;8.25;2.20;;;;;;;;;;5015719;28;20477;-88
2023/03/05 03:39:25;;;;;;;2.50;1.30;;;;;;;;;;5016002;28;20057;-87
2023/03/05 03:41:53;;;;;;;9.38;1.48;;;;;;;;;;5015553;28;20041;-87
2023/03/05 03:44:20;;;;;;;4.20;1.10;;;;;;;;;;5016473;28;20136;-87
2023/03/05 03:46:49;;;;;;;3.65;1.25;;;;;;;;;;5015476;28;20409;-88
2023/03/05 03:49:18;;;;;;;2.53;1.10;;;;;;;;;;5015494;28;20053;-86
2023/03/05 03:51:45;;;;;;;2.70;0.75;;;;;;;;;;5015285;28;20140;-88
2023/03/05 03:54:13;;;;;;;5.88;1.35;;;;;;;;;;5015455;28;20060;-87
2023/03/05 03:56:41;;;;;;;4.22;1.08;;;;;;;;;;5015367;28;20405;-87
2023/03/05 03:59:08;;;;;;;2.70;0.73;;;;;;;;;;5015325;28;20414;-87
2023/03/05 04:01:35;;;;;;;3.28;1.00;;;;;;;;;;5016226;28;20503;-86
2023/03/05 04:04:03;;;;;;;3.20;0.80;;;;;;;;;;5015353;28;20137;-88
2023/03/05 04:06:31;;;;;;;3.53;1.15;;;;;;;;;;5015377;28;20469;-87
2023/03/05 04:08:58;;;;;;;3.00;1.23;;;;;;;;;;5014979;28;20422;-87
2023/03/05 04:11:25;;;;;;;4.55;0.90;;;;;;;;;;5015382;28;20045;-87
2023/03/05 04:13:53;;;;;;;2.20;1.02;;;;;;;;;;5015886;28;20049;-87
2023/03/05 04:16:20;;;;;;;2.78;1.20;;;;;;;;;;5014858;28;20052;-87
2023/03/05 04:18:47;;;;;;;1.80;1.10;;;;;;;;;;5014764;28;20088;-87
2023/03/05 04:21:14;;;;;;;5.40;1.30;;;;;;;;;;5015011;28;20049;-87
2023/03/05 04:23:42;;;;;;;5.65;1.08;;;;;;;;;;5014674;28;20136;-87
2023/03/05 04:26:09;;;;;;;2.45;1.08;;;;;;;;;;5015925;28;20406;-87
2023/03/05 04:28:36;;;;;;;3.28;0.98;;;;;;;;;;5015934;28;20089;-87
2023/03/05 04:31:03;;;;;;;1.42;0.63;;;;;;;;;;5013423;28;20481;-87
2023/03/05 04:33:30;;;;;;;1.23;0.80;;;;;;;;;;5014765;28;20136;-87
2023/03/05 04:35:58;;;;;;;2.10;0.63;;;;;;;;;;5014582;28;20479;-87
2023/03/05 04:38:25;;;;;;;1.10;0.80;;;;;;;;;;5014678;28;20057;-87
2023/03/05 04:40:52;;;;;;;0.75;0.60;;;;;;;;;;5015575;28;20053;-87
2023/03/05 04:43:19;;;;;;;1.58;0.50;;;;;;;;;;5015330;28;20112;-87
2023/03/05 04:45:46;;;;;;;2.22;0.80;;;;;;;;;;5015422;28;20089;-87
2023/03/05 04:48:14;;;;;;;1.63;0.90;;;;;;;;;;5014293;28;20081;-87
2023/03/05 04:50:41;;;;;;;2.45;1.35;;;;;;;;;;5014363;28;20057;-87
2023/03/05 04:53:08;;;;;;;2.08;1.60;;;;;;;;;;5014120;28;20049;-87
2023/03/05 04:55:35;;;;;;;3.38;1.67;;;;;;;;;;5015340;28;20063;-87
2023/03/05 04:58:03;;;;;;;1.80;1.10;;;;;;;;;;5015054;28;20042;-87
2023/03/05 05:00:30;;;;;;;0.90;0.60;;;;;;;;;;5015253;28;20414;-87
2023/03/05 05:02:57;;;;;;;3.00;1.50;;;;;;;;;;5014065;28;20451;-87
2023/03/05 05:05:26;;;;;;;6.40;2.85;;;;;;;;;;5014067;28;20054;-87
2023/03/05 05:07:55;;;;;;;0.77;0.70;;;;;;;;;;5013766;28;20096;-87
2023/03/05 05:10:22;;;;;;;1.20;0.70;;;;;;;;;;5014436;28;20050;-87
2023/03/05 05:12:50;;;;;;;1.23;1.00;;;;;;;;;;5015014;28;20046;-87
2023/03/05 05:15:17;;;;;;;3.60;0.70;;;;;;;;;;5013770;28;20056;-87
2023/03/05 05:17:44;;;;;;;0.82;0.82;;;;;;;;;;5013854;28;20045;-87
2023/03/05 05:20:14;;;;;;;8.77;0.90;;;;;;;;;;5014967;28;20049;-87
2023/03/05 05:22:41;;;;;;;1.90;1.35;;;;;;;;;;5013702;28;20046;-86
2023/03/05 05:25:09;;;;;;;12.20;6.60;;;;;;;;;;5013573;28;20100;-86
2023/03/05 05:27:37;;;;;;;11.73;6.25;;;;;;;;;;5013668;28;20418;-86
2023/03/05 05:30:05;;;;;;;2.65;0.82;;;;;;;;;;5014700;28;20391;-86
2023/03/05 05:32:32;;;;;;;2.83;0.70;;;;;;;;;;5014420;28;20071;-86
2023/03/05 05:34:59;;;;;;;1.65;0.85;;;;;;;;;;5014559;28;20045;-86
2023/03/05 05:37:27;;;;;;;4.68;1.13;;;;;;;;;;5013658;28;20050;-86
2023/03/05 05:39:54;;;;;;;3.17;0.82;;;;;;;;;;5013364;28;20108;-86
2023/03/05 05:42:23;;;;;;;2.67;0.63;;;;;;;;;;5014054;28;20137;-86
2023/03/05 05:44:50;;;;;;;1.17;0.55;;;;;;;;;;5013517;28;20049;-86
2023/03/05 05:47:18;;;;;;;2.38;0.50;;;;;;;;;;5012915;28;20053;-86
2023/03/05 05:49:45;;;;;;;2.35;0.40;;;;;;;;;;5013209;28;20467;-86
2023/03/05 05:52:13;;;;;;;1.55;0.52;;;;;;;;;;5013047;28;20046;-86
2023/03/05 05:54:40;;;;;;;1.73;0.80;;;;;;;;;;5014059;28;20052;-86
2023/03/05 05:57:07;;;;;;;2.20;0.57;;;;;;;;;;5013208;28;20137;-86
2023/03/05 05:59:35;;;;;;;1.67;0.50;;;;;;;;;;5014059;28;20045;-85
2023/03/05 06:02:03;;;;;;;2.40;0.70;;;;;;;;;;5013896;28;20050;-86
2023/03/05 06:04:30;;;;;;;4.03;1.02;;;;;;;;;;5014279;28;20053;-87
2023/03/05 06:06:58;;;;;;;3.42;0.50;;;;;;;;;;5012725;28;20050;-86
2023/03/05 06:09:26;;;;;;;3.25;0.80;;;;;;;;;;5013037;28;20054;-87
2023/03/05 06:11:53;;;;;;;1.27;0.80;;;;;;;;;;5012942;28;20406;-87
2023/03/05 06:14:20;;;;;;;1.40;1.20;;;;;;;;;;5012890;28;20072;-87
2023/03/05 06:16:47;;;;;;;1.30;1.20;;;;;;;;;;5012978;28;20082;-86
2023/03/05 06:19:15;;;;;;;1.75;0.70;;;;;;;;;;5013876;28;20057;-87
2023/03/05 06:21:42;;;;;;;1.55;1.33;;;;;;;;;;5012925;28;20048;-87
2023/03/05 06:24:10;;;;;;;2.42;1.00;;;;;;;;;;5012669;28;20141;-87
2023/03/05 06:26:37;;;;;;;22.05;8.95;;;;;;;;;;5013085;28;20108;-87
2023/03/05 06:29:04;;;;;;;6.88;3.38;;;;;;;;;;5013578;28;20089;-87
2023/03/05 06:31:32;;;;;;;2.38;1.52;;;;;;;;;;5012741;28;20470;-87
2023/03/05 06:34:02;;;;;;;2.33;0.90;;;;;;;;;;5013641;28;20045;-87
2023/03/05 06:36:29;;;;;;;21.60;14.43;;;;;;;;;;5013855;28;20053;-87
2023/03/05 06:38:57;;;;;;;7.40;5.07;;;;;;;;;;5013770;28;20100;-86
2023/03/05 06:41:26;;;;;;;15.77;8.77;;;;;;;;;;5013693;28;20134;-86
2023/03/05 06:43:54;;;;;;;15.20;8.23;;;;;;;;;;5012651;28;20054;-86
2023/03/05 06:46:23;;;;;;;23.52;8.48;;;;;;;;;;5012408;28;20096;-86
2023/03/05 06:48:51;;;;;;;5.57;2.17;;;;;;;;;;5012714;28;20053;-87
2023/03/05 06:51:23;;;;;;;7.13;3.55;;;;;;;;;;5012548;28;20050;-86
2023/03/05 06:53:51;;;;;;;6.80;3.55;;;;;;;;;;5012449;28;20050;-87
2023/03/05 06:56:19;;;;;;;9.20;5.45;;;;;;;;;;5015960;28;20481;-86
2023/03/05 06:58:47;;;;;;;7.47;4.18;;;;;;;;;;5016320;28;20052;-86
2023/03/05 07:01:14;;;;;;;4.53;3.40;;;;;;;;;;5016143;28;20597;-87
2023/03/05 07:03:42;;;;;;;2.25;1.30;;;;;;;;;;5017309;28;20073;-87
2023/03/05 07:06:11;;;;;;;3.33;2.35;;;;;;;;;;5017066;28;20144;-86
2023/03/05 07:08:43;;;;;;;2.17;1.05;;;;;;;;;;5016916;28;20068;-86
2023/03/05 07:11:12;;;;;;;2.85;0.70;;;;;;;;;;5017045;28;20500;-87
2023/03/05 07:13:39;;;;;;;1.52;1.20;;;;;;;;;;5017008;28;20085;-87
2023/03/05 07:16:08;;;;;;;2.35;1.10;;;;;;;;;;5016936;28;20129;-87
2023/03/05 07:18:36;;;;;;;4.68;2.28;;;;;;;;;;5015948;28;20049;-87
2023/03/05 07:21:07;;;;;;;1.80;1.30;;;;;;;;;;5015802;28;20418;-87
2023/03/05 07:23:35;;;;;;;2.25;1.77;;;;;;;;;;5015922;28;20436;-86
2023/03/05 07:26:03;;;;;;;3.00;1.42;;;;;;;;;;5015718;28;20126;-87
2023/03/05 07:28:30;;;;;;;2.42;1.65;;;;;;;;;;5015798;28;20129;-86
2023/03/05 07:30:58;;;;;;;2.30;1.33;;;;;;;;;;5015446;28;20052;-86
2023/03/05 07:33:26;;;;;;;1.25;1.15;;;;;;;;;;5015714;28;20076;-86
2023/03/05 07:35:54;;;;;;;1.67;0.70;;;;;;;;;;5015869;28;20049;-86
2023/03/05 07:38:21;;;;;;;0.55;0.40;;;;;;;;;;5015514;28;20402;-86
2023/03/05 07:40:49;;;;;;;2.25;1.23;;;;;;;;;;5017137;28;20050;-86
2023/03/05 07:43:16;;;;;;;2.60;0.65;;;;;;;;;;5015302;28;20050;-86
2023/03/05 07:45:44;;;;;;;1.38;0.57;;;;;;;;;;5015796;28;20165;-86
2023/03/05 07:48:12;;;;;;;1.70;0.60;;;;;;;;;;5016703;28;20096;-87
2023/03/05 07:50:40;;;;;;;1.40;0.45;;;;;;;;;;5016454;28;20537;-86
2023/03/05 07:53:07;;;;;;;1.27;0.70;;;;;;;;;;5016229;28;20057;-86
2023/03/05 07:55:35;;;;;;;0.70;0.50;;;;;;;;;;5015256;28;20136;-86
2023/03/05 07:58:02;;;;;;;2.40;0.47;;;;;;;;;;5015173;28;20501;-86
2023/03/05 08:00:29;;;;;;;1.90;0.60;;;;;;;;;;5015090;28;20487;-86
2023/03/05 08:02:56;;;;;;;0.70;0.55;;;;;;;;;;5016356;28;20096;-86
2023/03/05 08:05:24;;;;;;;2.17;0.65;;;;;;;;;;5016035;28;20076;-86
2023/03/05 08:07:51;;;;;;;4.05;0.70;;;;;;;;;;5014896;28;20137;-87
2023/03/05 08:10:18;;;;;;;2.58;0.80;;;;;;;;;;5015188;28;20049;-87
2023/03/05 08:12:45;;;;;;;2.28;0.80;;;;;;;;;;5014970;28;20049;-86
2023/03/05 08:15:13;;;;;;;1.35;0.60;;;;;;;;;;5014947;28;20045;-87
2023/03/05 08:17:40;;;;;;;1.00;0.47;;;;;;;;;;5016454;28;20056;-87
2023/03/05 08:20:09;;;;;;;1.02;0.47;;;;;;;;;;5015825;28;20406;-86
2023/03/05 08:22:37;;;;;;;0.90;0.63;;;;;;;;;;5016147;28;20073;-86
2023/03/05 08:25:05;;;;;;;1.52;0.75;;;;;;;;;;5014964;28;20049;-86
2023/03/05 08:27:32;;;;;;;1.27;0.60;;;;;;;;;;5015674;28;20081;-86
2023/03/05 08:30:01;;;;;;;1.45;0.40;;;;;;;;;;5014334;28;20050;-85
2023/03/05 08:32:28;;;;;;;1.33;0.40;;;;;;;;;;5014626;28;20050;-86
2023/03/05 08:34:57;;;;;;;0.73;0.57;;;;;;;;;;5015492;28;20086;-86
2023/03/05 08:37:24;;;;;;;1.70;0.75;;;;;;;;;;5014192;28;20084;-86
2023/03/05 08:39:52;;;;;;;2.83;0.60;;;;;;;;;;5015530;28;20056;-85
2023/03/05 08:42:19;;;;;;;2.47;0.95;;;;;;;;;;5014208;28;20053;-85
2023/03/05 08:44:46;;;;;;;1.33;0.75;;;;;;;;;;5014078;28;20050;-86
2023/03/05 08:47:13;;;;;;;1.92;0.50;;;;;;;;;;5015178;28;20049;-87
2023/03/05 08:49:41;;;;;;;3.40;0.82;;;;;;;;;;5015048;28;20060;-86
2023/03/05 08:52:08;;;;;;;2.20;0.60;;;;;;;;;;5014066;28;20048;-86
2023/03/05 08:54:36;;;;;;;2.38;0.88;;;;;;;;;;5014183;28;20411;-86
2023/03/05 08:57:03;;;;;;;1.98;1.42;;;;;;;;;;5014933;28;20137;-86
2023/03/05 08:59:31;;;;;;;2.17;0.77;;;;;;;;;;5015094;28;20060;-86
2023/03/05 09:02:01;;;;;;;4.43;1.17;;;;;;;;;;5014083;28;20052;-86
2023/03/05 09:04:29;;;;;;;6.00;1.23;;;;;;;;;;5014078;28;20133;-86
2023/03/05 09:06:57;;;;;;;1.05;0.95;;;;;;;;;;5013862;28;20088;-86
2023/03/05 09:09:24;;;;;;;2.20;0.50;;;;;;;;;;5014491;28;20054;-85
2023/03/05 09:11:51;;;;;;;2.15;0.73;;;;;;;;;;5014948;28;20164;-85
2023/03/05 09:14:19;;;;;;;1.42;0.60;;;;;;;;;;5013914;28;20054;-86
2023/03/05 09:16:46;;;;;;;6.75;2.05;;;;;;;;;;5013372;28;20117;-86
2023/03/05 09:19:14;;;;;;;23.20;12.07;;;;;;;;;;5013548;28;20050;-86
2023/03/05 09:21:41;;;;;;;1.23;1.13;;;;;;;;;;5014655;28;20501;-85
2023/03/05 09:24:09;;;;;;;1.67;0.68;;;;;;;;;;5013503;28;20096;-86
2023/03/05 09:26:36;;;;;;;7.00;4.63;;;;;;;;;;5013395;28;20132;-85
2023/03/05 09:29:03;;;;;;;2.05;1.85;;;;;;;;;;5014516;28;20046;-86
2023/03/05 09:31:30;;;;;;;4.90;3.88;;;;;;;;;;5013553;28;20077;-86
2023/03/05 09:33:57;;;;;;;4.05;1.63;;;;;;;;;;5013428;28;20137;-86
2023/03/05 09:36:26;;;;;;;3.40;1.13;;;;;;;;;;5014428;28;20052;-86
2023/03/05 09:38:53;;;;;;;1.75;0.80;;;;;;;;;;5013253;28;20054;-86
2023/03/05 09:41:29;;;;;;;1.95;0.65;;;;;;;;;;5014532;28;20046;-86
2023/03/05 09:43:59;;;;;;;2.10;0.82;;;;;;;;;;5013046;28;20136;-86
2023/03/05 09:46:40;;;;;;;0.50;0.45;;;;;;;;;;5013757;28;20049;-86
2023/03/05 09:49:16;;;;;;;2.70;0.80;;;;;;;;;;5016731;28;20053;-86
2023/03/05 09:51:45;;;;;;;1.13;0.70;;;;;;;;;;5015128;28;20494;-86
2023/03/05 09:54:18;;;;;;;1.42;0.70;;;;;;;;;;5015455;28;20137;-86
2023/03/05 09:56:48;;;;;;;2.38;0.60;;;;;;;;;;5014940;28;20060;-86
2023/03/05 09:59:35;;;;;;;1.02;0.50;;;;;;;;;;5015637;28;20049;-86
2023/03/05 10:02:05;;;;;;;0.60;0.57;;;;;;;;;;5014293;28;20085;-87
2023/03/05 10:04:32;;;;;;;1.60;0.80;;;;;;;;;;5014475;28;20050;-86
2023/03/05 10:07:02;;;;;;;1.65;0.50;;;;;;;;;;5014602;28;20486;-86
2023/03/05 10:09:42;;;;;;;1.27;0.80;;;;;;;;;;5016282;28;20445;-86
2023/03/05 10:12:14;;;;;;;2.33;0.68;;;;;;;;;;5014130;28;20053;-85
2023/03/05 10:14:41;;;;;;;0.95;0.50;;;;;;;;;;5014681;28;20081;-86
2023/03/05 10:17:27;;;;;;;2.63;0.90;;;;;;;;;;5014678;28;20053;-86
2023/03/05 10:20:06;;;;;;;1.42;0.50;;;;;;;;;;5013807;28;20410;-86
2023/03/05 10:22:41;;;;;;;1.85;0.65;;;;;;;;;;5014699;28;20395;-85
2023/03/05 10:25:11;;;;;;;4.18;0.57;;;;;;;;;;5014553;28;20054;-85
2023/03/05 10:27:42;;;;;;;1.17;0.50;;;;;;;;;;5012351;28;20046;-84
2023/03/05 10:30:24;;;;;;;1.17;0.50;;;;;;;;;;5016023;28;20056;-86
2023/03/05 10:32:55;;;;;;;1.98;0.80;;;;;;;;;;5016721;28;20056;-86
2023/03/05 10:35:51;;;;;;;1.88;1.02;;;;;;;;;;5016842;28;20061;-86
2023/03/05 10:38:37;;;;;;;4.72;1.00;;;;;;;;;;5009117;28;20061;-86
2023/03/05 10:41:16;;;;;;;3.63;0.57;;;;;;;;;;5017553;28;20046;-87
2023/03/05 10:43:58;;;;;;;6.28;0.50;;;;;;;;;;5017912;28;20406;-85
2023/03/05 10:46:28;;;;;;;1.50;0.50;;;;;;;;;;5016591;28;20065;-87
2023/03/05 10:48:58;;;;;;;2.28;0.85;;;;;;;;;;5016263;28;20076;-87
2023/03/05 10:51:25;;;;;;;1.13;0.40;;;;;;;;;;5017384;28;20064;-86
2023/03/05 10:53:52;;;;;;;1.02;0.50;;;;;;;;;;5016238;28;20133;-86
2023/03/05 10:56:21;;;;;;;1.83;0.50;;;;;;;;;;5016214;28;20049;-86
2023/03/05 10:58:50;;;;;;;2.15;0.57;;;;;;;;;;5017505;28;20056;-86
2023/03/05 11:01:20;;;;;;;0.20;0.20;;;;;;;;;;5017411;28;20049;-86
2023/03/05 11:04:09;;;;;;;1.80;0.52;;;;;;;;;;5016157;28;20145;-86
2023/03/05 11:06:41;;;;;;;1.15;0.50;;;;;;;;;;5016293;28;20042;-85
2023/03/05 11:09:11;;;;;;;0.55;0.45;;;;;;;;;;5016676;28;20054;-86
2023/03/05 11:11:38;;;;;;;1.27;0.45;;;;;;;;;;5016176;28;20080;-86
2023/03/05 11:14:22;;;;;;;3.47;0.70;;;;;;;;;;5016860;28;20136;-86
2023/03/05 11:16:49;;;;;;;2.28;0.70;;;;;;;;;;5017068;28;20106;-86
2023/03/05 11:19:36;;;;;;;4.57;0.70;;;;;;;;;;5015759;28;20058;-86
2023/03/05 11:22:06;;;;;;;6.78;0.70;;;;;;;;;;5016838;28;20049;-86
2023/03/05 11:24:33;;;;;;;2.08;0.60;;;;;;;;;;5016695;28;20138;-86
2023/03/05 11:27:01;;;;;;;2.65;0.60;;;;;;;;;;5016617;28;20046;-86
2023/03/05 11:29:33;;;;;;;2.08;0.50;;;;;;;;;;5015686;28;20049;-86
2023/03/05 11:32:19;;;;;;;0.57;0.50;;;;;;;;;;5015772;28;20053;-86
2023/03/05 11:34:46;;;;;;;2.63;1.20;;;;;;;;;;5015307;28;20054;-86
2023/03/05 11:37:22;;;;;;;2.42;0.70;;;;;;;;;;5015444;28;20375;-86
2023/03/05 11:40:04;;;;;;;1.98;0.70;;;;;;;;;;5015248;28;20410;-86
2023/03/05 11:42:31;;;;;;;3.08;0.50;;;;;;;;;;5015596;28;20050;-86
2023/03/05 11:44:59;;;;;;;10.30;1.00;;;;;;;;;;5015191;28;20549;-86
2023/03/05 11:47:29;;;;;;;3.45;1.15;;;;;;;;;;5015547;28;20076;-86
2023/03/05 11:50:01;;;;;;;2.15;0.30;;;;;;;;;;5016148;28;20068;-85
2023/03/05 11:52:32;;;;;;;1.00;0.32;;;;;;;;;;5015154;28;20371;-86
2023/03/05 11:55:05;;;;;;;0.65;0.40;;;;;;;;;;5014571;28;20077;-86
2023/03/05 11:57:37;;;;;;;2.45;0.52;;;;;;;;;;5016083;28;20512;-86
2023/03/05 12:00:11;;;;;;;2.97;0.57;;;;;;;;;;5015201;28;20052;-85
2023/03/05 12:02:38;;;;;;;2.03;0.45;;;;;;;;;;5015034;28;20487;-86
2023/03/05 12:05:06;;;;;;;2.15;0.43;;;;;;;;;;5016342;28;20049;-86
2023/03/05 12:07:39;;;;;;;1.90;0.90;;;;;;;;;;5014852;28;20129;-86
2023/03/05 12:10:13;;;;;;;2.67;0.30;;;;;;;;;;5015752;28;20053;-85
2023/03/05 12:12:47;;;;;;;3.97;0.40;;;;;;;;;;5014866;28;20129;-85
2023/03/05 12:15:25;;;;;;;3.25;0.60;;;;;;;;;;5014801;28;20176;-85
2023/03/05 12:17:55;;;;;;;0.85;0.38;;;;;;;;;;5015727;28;20045;-86
2023/03/05 12:20:27;;;;;;;1.38;0.20;;;;;;;;;;5014475;28;20057;-86
2023/03/05 12:22:55;;;;;;;0.30;0.30;;;;;;;;;;5015638;28;20050;-86
2023/03/05 12:25:45;;;;;;;0.63;0.52;;;;;;;;;;5014644;28;20061;-86
2023/03/05 12:28:14;;;;;;;1.23;0.47;;;;;;;;;;5014347;28;20049;-86
2023/03/05 12:30:41;;;;;;;0.50;0.40;;;;;;;;;;5014392;28;20068;-86
2023/03/05 12:33:29;;;;;;;1.00;0.43;;;;;;;;;;5015578;28;20165;-85
2023/03/05 12:36:15;;;;;;;1.67;0.75;;;;;;;;;;5014308;28;20062;-85
2023/03/05 12:38:43;;;;;;;0.52;0.50;;;;;;;;;;5014394;28;20056;-86
2023/03/05 12:41:23;;;;;;;0.68;0.40;;;;;;;;;;5014381;28;20060;-86
2023/03/05 12:44:04;;;;;;;2.83;0.30;;;;;;;;;;5015523;28;20568;-85
2023/03/05 12:46:34;;;;;;;4.43;0.75;;;;;;;;;;5014372;28;20050;-86
2023/03/05 12:49:21;;;;;;;0.80;0.47;;;;;;;;;;5015071;28;20057;-87
2023/03/05 12:51:49;;;;;;;0.32;0.32;;;;;;;;;;5014483;28;20133;-86
2023/03/05 12:54:38;;;;;;;2.47;0.40;;;;;;;;;;5015109;28;20054;-86
2023/03/05 12:57:13;;;;;;;4.15;0.75;;;;;;;;;;5015138;28;20081;-86
2023/03/05 12:59:43;;;;;;;2.13;0.65;;;;;;;;;;5014354;28;20056;-87
2023/03/05 13:02:18;;;;;;;3.10;0.32;;;;;;;;;;5015270;28;20049;-86
2023/03/05 13:04:46;;;;;;;2.97;0.65;;;;;;;;;;5014132;28;20045;-86
2023/03/05 13:07:15;;;;;;;6.18;1.23;;;;;;;;;;5015307;28;20076;-86
2023/03/05 13:09:51;;;;;;;0.40;0.22;;;;;;;;;;5014799;28;20054;-86
2023/03/05 13:12:18;;;;;;;2.42;0.40;;;;;;;;;;5013717;28;20050;-86
2023/03/05 13:14:46;;;;;;;0.75;0.30;;;;;;;;;;5014842;28;20052;-86
2023/03/05 13:17:28;;;;;;;1.90;0.32;;;;;;;;;;5014795;28;20133;-86
2023/03/05 13:19:56;;;;;;;1.50;0.25;;;;;;;;;;5013728;28;20096;-86
2023/03/05 13:22:24;;;;;;;1.75;0.50;;;;;;;;;;5013542;28;20058;-86
2023/03/05 13:25:10;;;;;;;1.42;0.40;;;;;;;;;;5013403;28;20045;-86
2023/03/05 13:27:37;;;;;;;0.40;0.40;;;;;;;;;;5013433;28;20061;-86
2023/03/05 13:30:04;;;;;;;0.32;0.32;;;;;;;;;;5013442;28;20165;-85
2023/03/05 13:32:32;;;;;;;1.38;0.50;;;;;;;;;;5014320;28;20050;-86
2023/03/05 13:35:00;;;;;;;0.38;0.38;;;;;;;;;;5012332;28;20609;-86
2023/03/05 13:37:30;;;;;;;2.88;0.80;;;;;;;;;;5013213;28;20042;-86
2023/03/05 13:39:58;;;;;;;2.05;0.30;;;;;;;;;;5013950;28;20085;-86
2023/03/05 13:42:27;;;;;;;1.08;0.20;;;;;;;;;;5014532;28;20141;-86
2023/03/05 13:44:54;;;;;;;2.40;0.50;;;;;;;;;;5012924;28;20482;-86
2023/03/05 13:47:22;;;;;;;0.50;0.50;;;;;;;;;;5013977;28;20054;-86
2023/03/05 13:49:58;;;;;;;0.38;0.32;;;;;;;;;;5013016;28;20050;-86
2023/03/05 13:52:28;;;;;;;0.65;0.57;;;;;;;;;;5012991;28;20103;-86
2023/03/05 13:54:56;;;;;;;0.63;0.50;;;;;;;;;;5013526;28;20096;-86
2023/03/05 13:57:33;;;;;;;3.95;2.00;;;;;;;;;;5012858;28;20050;-86
2023/03/05 14:00:00;;;;;;;0.98;0.60;;;;;;;;;;5012717;28;20050;-86
2023/03/05 14:02:28;;;;;;;1.15;1.05;;;;;;;;;;5014063;28;20148;-86
2023/03/05 14:04:59;;;;;;;0.93;0.70;;;;;;;;;;5012335;28;20050;-87
2023/03/05 14:07:35;;;;;;;5.97;0.73;;;;;;;;;;5012384;28;20050;-86
2023/03/05 14:10:04;;;;;;;1.13;0.60;;;;;;;;;;5013446;28;20085;-85
2023/03/05 14:12:42;;;;;;;5.63;0.65;;;;;;;;;;5010747;28;20050;-86
2023/03/05 14:15:20;;;;;;;1.00;0.50;;;;;;;;;;5000558;28;20050;-86
2023/03/05 14:17:48;;;;;;;3.25;0.50;;;;;;;;;;4993681;28;20051;-86
2023/03/05 14:20:29;;;;;;;1.25;0.40;;;;;;;;;;4993934;28;20050;-86
2023/03/05 14:22:57;;;;;;;0.77;0.60;;;;;;;;;;4993458;28;20061;-86
2023/03/05 14:25:41;;;;;;;0.77;0.55;;;;;;;;;;4996886;28;20042;-86
2023/03/05 14:28:17;;;;;;;1.38;0.57;;;;;;;;;;5011938;28;20096;-85
2023/03/05 14:30:46;;;;;;;1.25;0.52;;;;;;;;;;5013610;28;20049;-85
2023/03/05 14:33:14;;;;;;;1.02;0.57;;;;;;;;;;5013322;28;20058;-86
2023/03/05 14:35:48;;;;;;;1.67;0.47;;;;;;;;;;5012358;28;20433;-86
2023/03/05 14:38:19;;;;;;;0.47;0.47;;;;;;;;;;5012240;28;20137;-86
2023/03/05 14:40:46;;;;;;;0.60;0.60;;;;;;;;;;5012062;28;20420;-85
2023/03/05 14:43:14;;;;;;;0.65;0.65;;;;;;;;;;5012181;28;20049;-86
2023/03/05 14:45:46;;;;;;;1.70;0.65;;;;;;;;;;5012129;28;20394;-86
2023/03/05 14:48:15;;;;;;;2.20;1.60;;;;;;;;;;5012478;28;20053;-86
2023/03/05 14:50:50;;;;;;;2.90;1.60;;;;;;;;;;5012118;28;20392;-86
2023/03/05 14:53:22;;;;;;;0.80;0.80;;;;;;;;;;5011892;28;20104;-85
2023/03/05 14:55:52;;;;;;;0.73;0.60;;;;;;;;;;5011832;28;20050;-86